Madison Lake, Minnesota
Current Conditions -  °F | °C
As of 2:15 PM on Monday 26 Jan 2015 (Local Time) from KMKT Reporting Station
Scattered Clouds Scattered Clouds  
Wind Chill: 33°   Ceiling: Unl
Heat Index: 43°   Visibility: 10mi
Dew Point: 36°   Wind: 24mph
Humidity: 76%   Direction: 310°NW
Pressure: 29.77"   Gusts: 28mph
Location:  44.2°N, 93.82°W
Report Text: KMKT 262015Z AUTO 31021G24KT 10SM SCT046 06/02 A2977 RMK AO1
Loading
Personal Weather Stations






























Interactive Weather Map New forecast layout! Learn more

10-Day Weather Forecast

Advertisements
Track Severe Weather on mobile